Time;durP1;ratioP1;P1;durP2;ratioP2;P2;SDS_P1;SDS_P2;PMS_P1;PMS_P2;Temp;Humidity;BMP_temperature;BMP_pressure;BME280_temperature;BME280_humidity;BME280_pressure;Samples;Min_cycle;Max_cycle;Signal;HPM_P1;HPM_P2
2020/12/03 00:01:08;;;;;;;40.17;36.60;;;3.40;36.20;;;;;;5095035;28;20220;-66
2020/12/03 00:03:57;;;;;;;48.03;44.08;;;3.50;35.50;;;;;;5094446;28;20218;-66
2020/12/03 00:06:30;;;;;;;41.70;38.03;;;3.50;35.10;;;;;;5093915;28;20204;-66
2020/12/03 00:08:56;;;;;;;42.67;38.83;;;3.50;35.30;;;;;;5094756;28;20206;-66
2020/12/03 00:11:28;;;;;;;35.72;32.42;;;3.50;34.10;;;;;;5094837;28;20179;-66
2020/12/03 00:13:53;;;;;;;38.05;34.20;;;3.50;34.60;;;;;;5094454;28;20191;-66
2020/12/03 00:16:19;;;;;;;38.80;35.10;;;3.50;34.50;;;;;;5093997;28;20602;-66
2020/12/03 00:18:45;;;;;;;41.03;37.80;;;3.50;34.50;;;;;;5094420;28;20213;-66
2020/12/03 00:21:11;;;;;;;37.80;34.17;;;3.50;34.10;;;;;;5094463;28;20251;-66
2020/12/03 00:23:39;;;;;;;39.15;35.85;;;3.60;34.20;;;;;;5094595;28;20160;-66
2020/12/03 00:26:05;;;;;;;36.13;32.70;;;3.60;33.80;;;;;;5093755;28;20199;-66
2020/12/03 00:28:34;;;;;;;38.10;34.33;;;3.60;32.80;;;;;;5094006;28;20243;-66
2020/12/03 00:30:59;;;;;;;39.88;35.53;;;3.50;32.90;;;;;;5094150;28;20230;-66
2020/12/03 00:33:26;;;;;;;34.60;31.00;;;3.60;32.90;;;;;;5093909;28;20593;-66
2020/12/03 00:35:52;;;;;;;34.25;30.10;;;3.60;32.00;;;;;;5093831;28;20192;-66
2020/12/03 00:38:19;;;;;;;33.65;30.20;;;3.50;31.90;;;;;;5094304;28;20172;-66
2020/12/03 00:40:46;;;;;;;38.03;34.17;;;3.60;32.50;;;;;;5094418;28;20614;-66
2020/12/03 00:43:13;;;;;;;37.25;31.55;;;3.50;33.30;;;;;;5093871;28;20573;-66
2020/12/03 00:45:39;;;;;;;39.47;35.90;;;3.40;34.80;;;;;;5093824;28;20188;-66
2020/12/03 00:48:04;;;;;;;36.53;33.27;;;3.40;36.10;;;;;;5094022;28;20180;-66
2020/12/03 00:50:30;;;;;;;40.60;36.93;;;3.50;36.20;;;;;;5094129;28;20259;-66
2020/12/03 00:52:56;;;;;;;40.60;36.47;;;3.50;40.90;;;;;;5093886;28;20177;-66
2020/12/03 00:55:21;;;;;;;35.60;30.10;;;3.50;35.00;;;;;;5093489;28;20188;-67
2020/12/03 00:57:47;;;;;;;34.10;30.77;;;3.50;34.80;;;;;;5093893;28;20169;-66
2020/12/03 01:00:16;;;;;;;34.57;30.90;;;3.50;34.20;;;;;;5093928;28;20512;-66
2020/12/03 01:02:41;;;;;;;39.67;35.83;;;3.30;36.20;;;;;;5093903;28;20165;-66
2020/12/03 01:05:10;;;;;;;33.50;30.07;;;3.40;37.70;;;;;;5093517;28;20192;-66
2020/12/03 01:07:36;;;;;;;45.38;40.72;;;3.40;38.60;;;;;;5094163;28;20206;-66
2020/12/03 01:10:05;;;;;;;42.25;38.88;;;3.40;39.50;;;;;;5093625;28;20261;-66
2020/12/03 01:12:31;;;;;;;37.88;33.85;;;3.30;39.50;;;;;;5093987;28;20164;-66
2020/12/03 01:14:56;;;;;;;40.90;36.57;;;3.30;39.80;;;;;;5093376;28;20275;-66
2020/12/03 01:17:22;;;;;;;35.70;32.20;;;3.30;39.10;;;;;;5093312;28;20662;-66
2020/12/03 01:19:48;;;;;;;33.90;30.50;;;3.50;38.20;;;;;;5093944;28;20298;-65
2020/12/03 01:22:13;;;;;;;37.97;34.47;;;3.50;37.00;;;;;;5093831;28;20164;-65
2020/12/03 01:24:41;;;;;;;37.63;33.63;;;3.50;35.60;;;;;;5095309;28;20236;-66
2020/12/03 01:27:07;;;;;;;38.03;33.05;;;3.60;35.30;;;;;;5097586;28;20196;-66
2020/12/03 01:29:33;;;;;;;39.08;35.03;;;3.60;34.40;;;;;;5097487;28;20237;-66
2020/12/03 01:31:58;;;;;;;38.53;34.27;;;3.70;33.40;;;;;;5097695;28;20173;-66
2020/12/03 01:34:24;;;;;;;39.47;35.83;;;3.60;32.00;;;;;;5096856;28;20211;-66
2020/12/03 01:36:53;;;;;;;36.63;33.23;;;3.70;32.20;;;;;;5097760;28;20276;-68
2020/12/03 01:39:20;;;;;;;34.80;31.45;;;3.70;31.60;;;;;;5097158;28;20544;-66
2020/12/03 01:41:46;;;;;;;34.65;30.98;;;3.60;32.20;;;;;;5097494;28;20191;-66
2020/12/03 01:44:13;;;;;;;34.90;31.35;;;3.50;33.60;;;;;;5097355;28;20171;-66
2020/12/03 01:46:39;;;;;;;33.00;29.60;;;3.60;34.30;;;;;;5096881;28;20644;-66
2020/12/03 01:49:15;;;;;;;36.88;33.03;;;3.70;33.70;;;;;;5097516;28;20557;-66
2020/12/03 01:51:44;;;;;;;32.58;29.48;;;3.60;33.50;;;;;;5097567;28;20251;-66
2020/12/03 01:54:13;;;;;;;38.78;34.67;;;3.70;33.40;;;;;;5096925;28;20176;-66
2020/12/03 01:57:04;;;;;;;39.35;35.38;;;3.60;32.70;;;;;;5096867;28;20235;-66
2020/12/03 01:59:46;;;;;;;38.35;33.00;;;3.60;33.30;;;;;;5097322;28;20306;-66
2020/12/03 02:02:15;;;;;;;37.00;32.63;;;3.70;33.00;;;;;;5097263;28;20184;-66
2020/12/03 02:04:41;;;;;;;34.90;31.42;;;3.70;32.80;;;;;;5096612;28;20184;-66
2020/12/03 02:07:09;;;;;;;41.40;36.87;;;3.90;36.70;;;;;;5097016;28;20187;-66
2020/12/03 02:09:35;;;;;;;42.25;37.95;;;3.90;30.90;;;;;;5097246;28;20622;-66
2020/12/03 02:12:01;;;;;;;41.35;37.33;;;3.90;29.80;;;;;;5097168;28;20184;-66
2020/12/03 02:14:27;;;;;;;36.47;32.87;;;3.80;30.10;;;;;;5096887;28;20192;-66
2020/12/03 02:16:53;;;;;;;37.87;34.10;;;3.90;30.20;;;;;;5096424;28;20207;-66
2020/12/03 02:19:26;;;;;;;36.55;32.65;;;4.00;29.50;;;;;;5096592;28;20168;-66
2020/12/03 02:22:02;;;;;;;38.70;34.85;;;3.90;29.30;;;;;;5096573;28;20175;-66
2020/12/03 02:24:36;;;;;;;37.38;31.70;;;3.90;29.80;;;;;;5096164;28;20187;-66
2020/12/03 02:27:04;;;;;;;32.88;29.52;;;3.90;29.90;;;;;;5096922;28;20641;-66
2020/12/03 02:29:29;;;;;;;39.33;35.33;;;3.90;30.10;;;;;;5096565;28;20653;-66
2020/12/03 02:31:55;;;;;;;36.47;32.60;;;3.90;30.20;;;;;;5096109;28;20172;-66
2020/12/03 02:34:22;;;;;;;37.77;33.93;;;3.90;30.90;;;;;;5096386;28;20188;-66
2020/12/03 02:36:56;;;;;;;36.85;32.72;;;3.90;31.90;;;;;;5095120;28;20196;-66
2020/12/03 02:39:23;;;;;;;37.92;34.13;;;3.80;32.30;;;;;;5096389;28;20255;-67
2020/12/03 02:41:48;;;;;;;39.83;35.22;;;3.90;32.90;;;;;;5096005;28;20167;-66
2020/12/03 02:44:15;;;;;;;42.40;37.83;;;4.00;32.30;;;;;;5096017;28;20251;-66
2020/12/03 02:46:41;;;;;;;43.03;38.90;;;4.00;31.30;;;;;;5096037;28;20188;-66
2020/12/03 02:49:07;;;;;;;39.43;32.97;;;3.80;32.20;;;;;;5096228;28;20169;-66
2020/12/03 02:51:33;;;;;;;42.83;39.05;;;3.90;32.90;;;;;;5096355;28;20169;-66
2020/12/03 02:53:58;;;;;;;42.40;38.40;;;3.90;32.10;;;;;;5096348;28;20204;-66
2020/12/03 02:56:24;;;;;;;41.93;37.93;;;4.00;32.10;;;;;;5095382;28;20295;-66
2020/12/03 02:58:49;;;;;;;41.93;37.53;;;3.80;32.90;;;;;;5095785;28;20165;-66
2020/12/03 03:01:15;;;;;;;38.03;34.23;;;3.80;35.80;;;;;;5095930;28;20253;-66
2020/12/03 03:03:41;;;;;;;41.33;37.40;;;3.90;36.10;;;;;;5096211;28;20172;-66
2020/12/03 03:06:06;;;;;;;47.77;37.90;;;3.90;35.00;;;;;;5095304;28;20196;-66
2020/12/03 03:08:32;;;;;;;36.60;32.67;;;3.90;34.10;;;;;;5096106;28;20192;-66
2020/12/03 03:10:58;;;;;;;38.03;33.72;;;3.90;33.10;;;;;;5095324;28;20208;-66
2020/12/03 03:13:23;;;;;;;34.63;30.90;;;3.80;34.60;;;;;;5094253;28;20211;-65
2020/12/03 03:15:49;;;;;;;36.67;32.80;;;3.80;35.40;;;;;;5095253;28;20245;-65
2020/12/03 03:18:15;;;;;;;42.53;34.80;;;3.90;34.90;;;;;;5095675;28;20171;-66
2020/12/03 03:20:40;;;;;;;40.87;35.23;;;3.90;35.10;;;;;;5095735;28;20646;-66
2020/12/03 03:23:06;;;;;;;35.60;31.97;;;3.80;35.70;;;;;;5095773;28;20252;-67
2020/12/03 03:25:32;;;;;;;44.40;39.90;;;3.80;37.20;;;;;;5094937;28;20593;-66
2020/12/03 03:27:58;;;;;;;45.97;41.15;;;3.80;37.30;;;;;;5095257;28;20510;-66
2020/12/03 03:30:24;;;;;;;43.83;39.30;;;3.80;37.40;;;;;;5095286;28;20253;-66
2020/12/03 03:32:49;;;;;;;39.33;35.50;;;3.80;36.90;;;;;;5095256;28;20175;-66
2020/12/03 03:35:18;;;;;;;39.43;36.10;;;3.70;38.00;;;;;;5094873;28;20188;-66
2020/12/03 03:37:43;;;;;;;43.38;39.28;;;3.80;36.90;;;;;;5095477;28;20493;-66
2020/12/03 03:40:09;;;;;;;38.30;34.20;;;3.90;35.70;;;;;;5094867;28;20248;-66
2020/12/03 03:42:35;;;;;;;40.13;35.77;;;3.90;34.40;;;;;;5095185;28;20493;-66
2020/12/03 03:45:00;;;;;;;43.33;39.03;;;4.00;33.20;;;;;;5094796;28;20185;-66
2020/12/03 03:47:26;;;;;;;48.70;44.27;;;4.00;32.50;;;;;;5094783;28;20173;-66
2020/12/03 03:49:51;;;;;;;39.80;35.10;;;4.00;31.80;;;;;;5095293;28;20689;-66
2020/12/03 03:52:17;;;;;;;42.20;38.20;;;3.90;32.20;;;;;;5095206;28;20294;-66
2020/12/03 03:54:43;;;;;;;43.40;39.47;;;3.80;34.20;;;;;;5094314;28;20199;-66
2020/12/03 03:57:09;;;;;;;41.17;37.07;;;3.80;34.30;;;;;;5094607;28;20442;-66
2020/12/03 03:59:35;;;;;;;40.50;36.70;;;3.80;34.50;;;;;;5094746;28;20172;-66
2020/12/03 04:02:00;;;;;;;40.17;36.17;;;3.80;35.00;;;;;;5094398;28;20172;-66
2020/12/03 04:04:26;;;;;;;39.67;35.93;;;3.90;34.10;;;;;;5094807;28;20421;-66
2020/12/03 04:06:51;;;;;;;44.17;39.00;;;3.90;33.30;;;;;;5094815;28;20256;-65
2020/12/03 04:09:17;;;;;;;44.17;39.47;;;4.00;31.70;;;;;;5094325;28;20540;-66
2020/12/03 04:11:45;;;;;;;47.50;42.57;;;4.00;29.50;;;;;;5094218;28;20172;-66
2020/12/03 04:14:12;;;;;;;40.90;36.92;;;4.00;28.60;;;;;;5094572;28;20684;-66
2020/12/03 04:16:38;;;;;;;42.47;37.88;;;4.00;28.10;;;;;;5094408;28;20661;-66
2020/12/03 04:19:04;;;;;;;38.87;34.67;;;4.00;28.10;;;;;;5094805;28;20161;-66
2020/12/03 04:21:30;;;;;;;39.47;35.38;;;4.00;28.40;;;;;;5094771;28;20175;-66
2020/12/03 04:23:55;;;;;;;40.07;34.10;;;4.00;28.40;;;;;;5094085;28;20168;-66
2020/12/03 04:26:21;;;;;;;32.83;29.33;;;4.10;27.80;;;;;;5093952;28;20195;-66
2020/12/03 04:28:46;;;;;;;41.17;35.43;;;4.10;26.40;;;;;;5094840;28;20230;-66
2020/12/03 04:31:12;;;;;;;43.03;37.83;;;4.20;24.20;;;;;;5094383;28;20192;-66
2020/12/03 04:33:38;;;;;;;38.78;34.72;;;4.10;23.70;;;;;;5093976;28;20184;-66
2020/12/03 04:36:05;;;;;;;40.93;36.63;;;4.10;22.70;;;;;;5093536;28;20211;-66
2020/12/03 04:38:30;;;;;;;43.50;35.85;;;4.10;23.40;;;;;;5094770;28;20822;-66
2020/12/03 04:40:58;;;;;;;42.30;38.10;;;4.20;23.50;;;;;;5094001;28;20287;-66
2020/12/03 04:43:50;;;;;;;39.63;35.63;;;4.20;22.70;;;;;;5093997;28;20481;-66
2020/12/03 04:46:44;;;;;;;45.03;39.85;;;4.20;21.70;;;;;;5084724;28;20196;-66
2020/12/03 04:49:28;;;;;;;43.45;39.63;;;4.30;19.60;;;;;;5094030;28;20215;-66
2020/12/03 04:52:06;;;;;;;41.40;37.10;;;4.20;19.70;;;;;;5094021;28;20169;-66
2020/12/03 04:54:47;;;;;;;45.22;40.90;;;4.10;24.90;;;;;;5093795;28;20246;-66
2020/12/03 04:57:55;;;;;;;33.65;30.33;;;4.10;21.70;;;;;;5094283;28;20196;-66
2020/12/03 05:00:41;;;;;;;40.35;36.10;;;4.20;22.10;;;;;;5020996;28;20191;-66
2020/12/03 05:03:37;;;;;;;44.72;40.28;;;4.20;22.60;;;;;;5094247;28;20218;-66
2020/12/03 05:06:19;;;;;;;41.33;37.30;;;4.20;22.00;;;;;;5093507;28;20210;-66
2020/12/03 05:09:03;;;;;;;37.03;33.15;;;4.20;21.70;;;;;;5092726;28;20180;-66
2020/12/03 05:11:36;;;;;;;41.53;37.28;;;4.30;20.20;;;;;;5093846;28;20180;-66
2020/12/03 05:14:05;;;;;;;40.30;36.30;;;4.20;19.90;;;;;;5094047;28;20208;-66
2020/12/03 05:16:41;;;;;;;35.13;31.33;;;4.10;20.70;;;;;;5093413;28;20200;-65
2020/12/03 05:19:31;;;;;;;40.67;36.75;;;4.20;21.30;;;;;;5093843;28;20168;-66
2020/12/03 05:21:58;;;;;;;41.95;37.85;;;4.20;21.70;;;;;;5093290;28;20165;-66
2020/12/03 05:24:23;;;;;;;40.85;36.60;;;4.20;20.90;;;;;;5093334;28;20211;-66
2020/12/03 05:26:49;;;;;;;38.57;34.47;;;4.30;19.60;;;;;;5093425;28;20618;-66
2020/12/03 05:29:14;;;;;;;40.23;36.60;;;4.30;17.60;;;;;;5093237;28;20172;-66
2020/12/03 05:31:43;;;;;;;44.87;40.77;;;4.20;18.20;;;;;;5093737;28;20204;-66
2020/12/03 05:34:17;;;;;;;41.90;38.08;;;4.20;18.30;;;;;;5093202;28;20188;-66
2020/12/03 05:36:55;;;;;;;44.30;39.78;;;4.20;19.80;;;;;;5093122;28;20271;-66
2020/12/03 05:39:31;;;;;;;41.72;37.38;;;4.20;19.90;;;;;;5093580;28;20157;-66
2020/12/03 05:42:01;;;;;;;38.38;34.30;;;4.20;19.80;;;;;;5093597;28;20623;-66
2020/12/03 05:44:51;;;;;;;40.33;36.33;;;4.30;19.30;;;;;;5093732;28;20223;-65
2020/12/03 05:47:24;;;;;;;41.60;37.92;;;4.30;18.30;;;;;;5093694;28;20173;-66
2020/12/03 05:49:59;;;;;;;38.30;32.00;;;4.30;17.70;;;;;;5093103;28;20175;-66
2020/12/03 05:52:27;;;;;;;40.90;36.85;;;4.30;16.50;;;;;;5093660;28;20171;-66
2020/12/03 05:55:19;;;;;;;41.15;36.85;;;4.40;16.30;;;;;;5093020;28;20219;-66
2020/12/03 05:57:45;;;;;;;42.17;37.95;;;4.30;16.10;;;;;;5093049;28;20161;-66
2020/12/03 06:00:13;;;;;;;46.50;42.07;;;4.40;16.00;;;;;;5093229;28;20502;-66
2020/12/03 06:03:07;;;;;;;44.65;40.42;;;4.40;15.30;;;;;;5093291;28;20441;-66
2020/12/03 06:05:36;;;;;;;40.50;36.67;;;4.50;14.50;;;;;;5092879;28;20184;-66
2020/12/03 06:08:16;;;;;;;41.33;37.35;;;4.30;15.00;;;;;;5093173;28;20187;-66
2020/12/03 06:10:52;;;;;;;37.30;33.30;;;4.30;16.40;;;;;;5094664;28;20607;-66
2020/12/03 06:13:37;;;;;;;44.40;39.80;;;4.30;17.80;;;;;;5097186;28;20187;-66
2020/12/03 06:16:26;;;;;;;35.78;31.95;;;4.40;17.90;;;;;;5096231;28;20196;-65
2020/12/03 06:19:02;;;;;;;40.63;36.45;;;4.20;19.20;;;;;;5096758;28;20153;-66
2020/12/03 06:22:12;;;;;;;36.90;32.88;;;4.20;19.80;;;;;;5096921;28;20645;-66
2020/12/03 06:25:16;;;;;;;35.90;32.10;;;4.30;19.50;;;;;;5051844;28;20209;-66
2020/12/03 06:28:05;;;;;;;36.30;30.42;;;4.40;18.30;;;;;;5096638;28;20179;-66
2020/12/03 06:30:36;;;;;;;40.30;36.55;;;4.40;17.20;;;;;;5096534;28;20196;-66
2020/12/03 06:33:14;;;;;;;40.40;35.13;;;4.50;16.10;;;;;;5096536;28;20172;-66
2020/12/03 06:36:07;;;;;;;43.40;36.97;;;4.50;18.20;;;;;;5095780;28;20203;-66
2020/12/03 06:39:20;;;;;;;40.28;36.15;;;4.50;13.70;;;;;;5096585;28;20689;-66
2020/12/03 06:41:49;;;;;;;34.72;31.00;;;4.50;14.00;;;;;;5060301;28;20184;-66
2020/12/03 06:44:32;;;;;;;39.97;35.72;;;4.50;14.10;;;;;;5096181;28;20173;-66
2020/12/03 06:47:35;;;;;;;41.05;36.72;;;4.40;15.80;;;;;;5096391;28;20165;-66
2020/12/03 06:50:09;;;;;;;36.40;31.73;;;4.40;15.80;;;;;;5096023;28;20164;-67
2020/12/03 06:52:59;;;;;;;41.03;36.55;;;4.30;17.40;;;;;;5095976;28;20164;-66
2020/12/03 06:56:01;;;;;;;35.58;31.08;;;4.30;17.90;;;;;;5095654;28;20245;-66
2020/12/03 06:58:45;;;;;;;42.90;38.90;;;4.30;17.60;;;;;;5095683;28;20207;-66
2020/12/03 07:01:34;;;;;;;46.10;41.97;;;4.40;17.50;;;;;;5096013;28;20503;-66
2020/12/03 07:04:42;;;;;;;39.75;35.83;;;4.40;17.60;;;;;;5096192;28;20226;-65
2020/12/03 07:07:20;;;;;;;40.33;36.47;;;4.30;18.10;;;;;;5095447;28;20249;-65
2020/12/03 07:09:59;;;;;;;42.55;35.60;;;4.20;19.50;;;;;;5094289;28;20536;-66
2020/12/03 07:12:49;;;;;;;36.83;33.33;;;4.30;20.30;;;;;;5096102;28;20179;-66
2020/12/03 07:15:27;;;;;;;36.92;31.60;;;4.30;20.20;;;;;;5095316;28;20184;-66
2020/12/03 07:18:16;;;;;;;39.58;35.75;;;4.40;19.20;;;;;;5095783;28;20557;-66
2020/12/03 07:20:49;;;;;;;40.95;36.95;;;4.40;18.40;;;;;;5095947;28;20198;-66
2020/12/03 07:23:24;;;;;;;35.47;31.80;;;4.40;18.20;;;;;;5094857;28;20164;-66
2020/12/03 07:25:50;;;;;;;40.00;32.08;;;4.40;17.70;;;;;;5094851;28;20188;-66
2020/12/03 07:28:24;;;;;;;36.50;33.00;;;4.40;17.50;;;;;;5095503;28;20183;-66
2020/12/03 07:30:52;;;;;;;34.17;30.50;;;4.40;16.70;;;;;;5093942;28;20173;-66
2020/12/03 07:33:30;;;;;;;33.22;29.70;;;4.50;16.40;;;;;;5095432;28;20185;-66
2020/12/03 07:36:20;;;;;;;41.83;37.72;;;4.50;15.50;;;;;;5094779;28;20607;-66
2020/12/03 07:39:03;;;;;;;37.92;34.42;;;4.40;16.20;;;;;;5094876;28;20176;-66
2020/12/03 07:41:32;;;;;;;40.40;36.90;;;4.30;18.10;;;;;;5093783;28;20164;-66
2020/12/03 07:44:41;;;;;;;37.22;33.40;;;4.30;18.60;;;;;;5095080;28;20534;-66
2020/12/03 07:47:33;;;;;;;37.58;28.95;;;4.40;18.40;;;;;;5084853;28;20184;-66
2020/12/03 07:50:28;;;;;;;38.30;31.25;;;4.30;17.50;;;;;;5095337;28;20180;-66
2020/12/03 07:53:15;;;;;;;35.47;31.95;;;4.30;17.70;;;;;;5094875;28;20168;-65
2020/12/03 07:55:42;;;;;;;35.03;31.50;;;4.30;17.80;;;;;;5094240;28;20188;-66
2020/12/03 07:58:35;;;;;;;39.10;35.50;;;4.30;18.50;;;;;;5094563;28;20187;-66
2020/12/03 08:01:04;;;;;;;36.03;32.22;;;4.20;18.90;;;;;;5094682;28;20168;-66
2020/12/03 08:03:38;;;;;;;39.58;35.83;;;4.30;18.10;;;;;;5094950;28;20176;-66
2020/12/03 08:06:12;;;;;;;33.63;28.10;;;4.40;17.50;;;;;;5094338;28;20195;-66
2020/12/03 08:08:40;;;;;;;39.45;35.78;;;4.30;17.20;;;;;;5094762;28;20178;-66
2020/12/03 08:11:34;;;;;;;35.33;31.10;;;4.30;16.90;;;;;;5094431;28;20204;-66
2020/12/03 08:14:00;;;;;;;33.38;30.02;;;4.40;16.90;;;;;;5094267;28;20165;-66
2020/12/03 08:16:39;;;;;;;35.27;31.70;;;4.50;15.90;;;;;;5093984;28;20614;-66
2020/12/03 08:19:23;;;;;;;33.85;30.85;;;4.50;15.20;;;;;;5094776;28;20224;-66
2020/12/03 08:21:49;;;;;;;40.92;36.60;;;4.50;14.10;;;;;;5094758;28;20264;-66
2020/12/03 08:24:27;;;;;;;36.80;33.15;;;4.50;14.30;;;;;;5094012;28;20214;-66
2020/12/03 08:27:03;;;;;;;35.33;31.67;;;4.50;13.30;;;;;;5093882;28;20206;-66
2020/12/03 08:29:37;;;;;;;35.78;32.45;;;4.50;13.00;;;;;;5094149;28;20186;-66
2020/12/03 08:32:03;;;;;;;32.40;28.88;;;4.40;13.60;;;;;;5094079;28;20209;-66
2020/12/03 08:34:32;;;;;;;36.97;30.50;;;4.40;14.50;;;;;;5092948;28;20247;-66
2020/12/03 08:36:58;;;;;;;35.17;31.95;;;4.40;14.20;;;;;;5094084;28;20204;-66
2020/12/03 08:39:24;;;;;;;41.20;36.90;;;4.50;15.10;;;;;;5094383;28;20164;-66
2020/12/03 08:41:51;;;;;;;39.78;35.50;;;4.40;15.90;;;;;;5094495;28;20728;-66
2020/12/03 08:44:17;;;;;;;34.38;30.88;;;4.40;16.70;;;;;;5093736;28;20194;-66
2020/12/03 08:46:42;;;;;;;36.67;32.83;;;4.40;17.80;;;;;;5093860;28;20195;-66
2020/12/03 08:49:19;;;;;;;40.70;35.07;;;4.40;17.90;;;;;;5094034;28;20405;-66
2020/12/03 08:51:52;;;;;;;38.45;34.33;;;4.40;18.50;;;;;;5094380;28;20221;-66
2020/12/03 08:54:28;;;;;;;34.67;31.27;;;4.40;18.40;;;;;;5094369;28;20165;-66
2020/12/03 08:56:58;;;;;;;40.42;36.33;;;4.40;18.10;;;;;;5093485;28;20196;-66
2020/12/03 08:59:44;;;;;;;36.78;32.78;;;4.50;16.70;;;;;;5093498;28;20256;-66
2020/12/03 09:02:11;;;;;;;35.63;32.13;;;4.50;14.70;;;;;;5093745;28;20165;-66
2020/12/03 09:04:38;;;;;;;37.60;31.60;;;4.50;14.30;;;;;;5093695;28;20663;-66
2020/12/03 09:07:07;;;;;;;38.13;34.42;;;4.60;13.80;;;;;;5087059;28;20177;-66
2020/12/03 09:09:36;;;;;;;41.58;37.38;;;4.70;11.40;;;;;;5081680;28;20181;-66
2020/12/03 09:12:03;;;;;;;53.58;47.20;;;4.70;9.30;;;;;;5073572;28;20214;-66
2020/12/03 09:14:33;;;;;;;38.05;32.63;;;4.70;7.80;;;;;;5073266;28;20659;-66
2020/12/03 09:17:07;;;;;;;36.10;31.00;;;4.70;7.90;;;;;;5073851;28;20526;-66
2020/12/03 09:19:33;;;;;;;40.72;33.17;;;4.60;8.90;;;;;;5073656;28;20176;-66
2020/12/03 09:22:01;;;;;;;36.30;32.67;;;4.70;9.50;;;;;;5073290;28;20169;-66
2020/12/03 09:24:27;;;;;;;32.40;29.15;;;4.70;9.70;;;;;;5073588;28;20195;-66
2020/12/03 09:26:58;;;;;;;37.92;34.15;;;4.60;10.70;;;;;;5073027;28;20184;-66
2020/12/03 09:29:24;;;;;;;41.20;32.47;;;4.60;12.10;;;;;;5073847;28;20174;-66
2020/12/03 09:31:57;;;;;;;34.30;30.63;;;4.60;11.60;;;;;;5073738;28;20643;-65
2020/12/03 09:34:23;;;;;;;34.40;30.42;;;4.60;11.40;;;;;;5073025;28;20217;-66
2020/12/03 09:36:48;;;;;;;37.25;30.23;;;4.70;9.70;;;;;;5073120;28;20204;-66
2020/12/03 09:39:14;;;;;;;34.27;30.67;;;4.60;10.50;;;;;;5073502;28;20165;-66
2020/12/03 09:41:42;;;;;;;36.17;32.13;;;4.50;13.00;;;;;;5073557;28;20204;-66
2020/12/03 09:44:13;;;;;;;30.80;27.75;;;4.50;13.70;;;;;;5073456;28;20453;-65
2020/12/03 09:46:42;;;;;;;35.90;32.00;;;4.50;14.80;;;;;;5076163;28;20181;-66
2020/12/03 09:49:11;;;;;;;32.45;28.65;;;4.60;14.70;;;;;;5076744;28;20165;-66
2020/12/03 09:51:37;;;;;;;29.75;26.92;;;4.60;14.40;;;;;;5076957;28;20177;-66
2020/12/03 09:54:03;;;;;;;33.00;28.00;;;4.60;13.00;;;;;;5077014;28;20183;-66
2020/12/03 09:56:33;;;;;;;33.70;30.50;;;4.70;11.70;;;;;;5076399;28;20193;-65
2020/12/03 09:58:59;;;;;;;37.80;34.17;;;4.70;11.10;;;;;;5077280;28;20608;-66
2020/12/03 10:01:41;;;;;;;36.23;32.47;;;4.70;10.00;;;;;;5076799;28;20173;-66
2020/12/03 10:04:46;;;;;;;33.83;30.70;;;4.90;8.50;;;;;;5077121;28;20399;-66
2020/12/03 10:07:33;;;;;;;31.63;28.25;;;4.80;6.10;;;;;;5075700;28;20212;-66
2020/12/03 10:10:29;;;;;;;31.17;27.95;;;4.90;6.40;;;;;;5076498;28;20223;-66
2020/12/03 10:13:25;;;;;;;34.28;30.40;;;5.00;4.30;;;;;;5076800;28;20177;-66
2020/12/03 10:16:07;;;;;;;33.92;30.42;;;5.00;2.30;;;;;;5076498;28;20280;-66
2020/12/03 10:18:51;;;;;;;30.98;27.70;;;5.00;2.60;;;;;;5076649;28;20165;-66
2020/12/03 10:21:25;;;;;;;36.42;33.17;;;5.10;2.00;;;;;;5076780;28;20165;-66
2020/12/03 10:24:05;;;;;;;36.30;32.78;;;5.10;1.40;;;;;;5076456;28;20169;-66
2020/12/03 10:26:56;;;;;;;32.47;29.45;;;5.10;1.90;;;;;;5075934;28;20220;-66
2020/12/03 10:29:28;;;;;;;29.00;26.23;;;5.00;4.00;;;;;;5076399;28;20186;-66
2020/12/03 10:31:56;;;;;;;40.38;35.17;;;5.10;4.20;;;;;;5076288;28;20672;-66
2020/12/03 10:34:22;;;;;;;34.45;30.90;;;5.00;4.80;;;;;;5075932;28;20647;-66
2020/12/03 10:36:51;;;;;;;33.17;29.60;;;5.10;4.70;;;;;;5075700;28;20197;-65
2020/12/03 10:39:17;;;;;;;36.08;32.83;;;5.20;3.90;;;;;;5076253;28;20180;-66
2020/12/03 10:41:48;;;;;;;33.45;30.15;;;5.20;3.60;;;;;;5076307;28;20165;-66
2020/12/03 10:44:18;;;;;;;30.50;27.65;;;5.30;3.60;;;;;;5076100;28;20251;-66
2020/12/03 10:46:52;;;;;;;29.17;26.75;;;5.20;3.50;;;;;;5075733;28;20149;-66
2020/12/03 10:49:21;;;;;;;33.95;31.15;;;5.30;3.80;;;;;;5075959;28;20184;-66
2020/12/03 10:51:47;;;;;;;35.80;32.40;;;5.20;4.20;;;;;;5075799;28;20631;-66
2020/12/03 10:54:19;;;;;;;33.20;30.07;;;5.40;4.50;;;;;;5075810;28;20188;-67
2020/12/03 10:56:52;;;;;;;31.48;28.50;;;5.30;5.40;;;;;;5074215;28;20197;-66
2020/12/03 10:59:23;;;;;;;30.02;27.15;;;5.40;5.20;;;;;;5076153;28;20193;-66
2020/12/03 11:01:54;;;;;;;27.80;25.27;;;5.40;5.10;;;;;;5075773;28;20239;-67
2020/12/03 11:04:21;;;;;;;33.63;30.85;;;5.50;4.60;;;;;;5075451;28;20168;-66
2020/12/03 11:06:46;;;;;;;31.15;28.23;;;5.60;4.40;;;;;;5075502;28;20516;-66
2020/12/03 11:09:18;;;;;;;37.43;33.90;;;5.50;5.40;;;;;;5075644;28;20658;-66
2020/12/03 11:11:45;;;;;;;37.10;34.08;;;5.40;7.50;;;;;;5075820;28;20547;-66
2020/12/03 11:14:12;;;;;;;31.95;28.75;;;5.40;8.50;;;;;;5075292;28;20173;-67
2020/12/03 11:16:48;;;;;;;33.20;30.05;;;5.20;10.90;;;;;;5075016;28;20525;-66
2020/12/03 11:19:16;;;;;;;30.77;27.98;;;5.20;13.70;;;;;;5075463;28;20226;-66
2020/12/03 11:21:53;;;;;;;32.58;29.48;;;5.20;15.10;;;;;;5075493;28;20576;-66
2020/12/03 11:24:37;;;;;;;33.90;31.30;;;5.20;15.80;;;;;;5075365;28;20177;-66
2020/12/03 11:27:04;;;;;;;36.47;32.72;;;5.30;15.40;;;;;;5074951;28;20157;-66
2020/12/03 11:29:35;;;;;;;37.88;34.75;;;5.10;15.40;;;;;;5075127;28;20628;-66
2020/12/03 11:32:01;;;;;;;35.85;32.70;;;5.20;16.50;;;;;;5084363;28;20658;-67
2020/12/03 11:34:37;;;;;;;32.85;30.25;;;5.20;17.10;;;;;;5092981;28;20201;-68
2020/12/03 11:37:03;;;;;;;36.45;32.70;;;5.30;16.40;;;;;;5091756;28;20554;-67
2020/12/03 11:39:30;;;;;;;33.95;30.75;;;5.30;16.30;;;;;;5092955;28;20229;-66
2020/12/03 11:45:43;;;;;;;37.58;34.20;;;5.20;17.30;;;;;;5083077;28;20203;-66
2020/12/03 11:50:38;;;;;;;31.20;28.00;;;5.20;19.80;;;;;;5093164;28;20712;-66
2020/12/03 11:53:07;;;;;;;33.97;30.77;;;5.30;19.40;;;;;;5092906;28;20176;-68
2020/12/03 11:55:39;;;;;;;32.13;29.40;;;5.30;18.70;;;;;;5092474;28;20192;-66
2020/12/03 11:58:09;;;;;;;38.83;35.83;;;5.40;18.80;;;;;;5092782;28;20262;-67
2020/12/03 12:00:36;;;;;;;29.80;27.17;;;5.30;18.80;;;;;;5092056;28;20165;-67
2020/12/03 12:03:08;;;;;;;36.97;33.72;;;5.30;18.90;;;;;;5092604;28;20587;-66
2020/12/03 12:11:31;;;;;;;28.30;25.70;;;5.30;20.10;;;;;;5092528;28;20175;-67
2020/12/03 12:13:33;;;;;;;29.55;27.00;;;5.30;20.40;;;;;;5086647;28;20277;-68
2020/12/03 12:15:58;;;;;;;30.83;27.87;;;5.30;20.00;;;;;;5091656;28;20685;-68
2020/12/03 12:18:24;;;;;;;32.47;29.63;;;5.30;21.70;;;;;;5085831;28;20537;-67
2020/12/03 12:20:50;;;;;;;34.23;31.00;;;5.30;21.80;;;;;;5082258;28;20525;-66
2020/12/03 12:23:16;;;;;;;28.58;25.95;;;5.50;22.20;;;;;;5070688;28;20515;-66
2020/12/03 12:25:41;;;;;;;28.10;25.50;;;5.50;22.10;;;;;;5071626;28;20200;-66
2020/12/03 12:28:07;;;;;;;28.77;25.77;;;5.30;22.70;;;;;;5071936;28;20165;-67
2020/12/03 12:30:33;;;;;;;29.43;26.33;;;5.30;25.10;;;;;;5071777;28;20161;-66
2020/12/03 12:32:59;;;;;;;28.90;26.17;;;5.30;26.20;;;;;;5072497;28;20164;-68
2020/12/03 12:35:26;;;;;;;30.77;27.48;;;5.50;26.10;;;;;;5085955;28;20430;-67
2020/12/03 12:37:52;;;;;;;32.03;29.00;;;5.60;25.20;;;;;;5092000;28;20247;-67
2020/12/03 12:40:18;;;;;;;32.60;27.13;;;5.60;25.60;;;;;;5091946;28;20668;-66
2020/12/03 12:42:43;;;;;;;33.17;30.07;;;5.60;25.70;;;;;;5091892;28;20186;-68
2020/12/03 12:45:09;;;;;;;32.33;29.60;;;5.70;26.90;;;;;;5091972;28;20283;-67
2020/12/03 12:47:35;;;;;;;38.40;34.87;;;5.80;28.00;;;;;;5091732;28;20173;-67
2020/12/03 12:50:00;;;;;;;40.53;37.33;;;5.90;27.40;;;;;;5091863;28;20247;-67
2020/12/03 12:52:26;;;;;;;36.17;33.30;;;5.90;26.40;;;;;;5091782;28;20173;-66
2020/12/03 12:54:52;;;;;;;35.33;32.37;;;5.90;26.00;;;;;;5091578;28;20192;-66
2020/12/03 12:57:19;;;;;;;35.47;32.57;;;6.00;27.50;;;;;;5091515;28;20211;-68
2020/12/03 12:59:45;;;;;;;37.47;34.70;;;5.90;27.80;;;;;;5091672;28;20422;-67
2020/12/03 13:02:11;;;;;;;35.63;32.78;;;5.90;8.20;;;;;;5091669;28;20168;-66
2020/12/03 13:04:36;;;;;;;34.97;32.10;;;5.80;10.10;;;;;;5091610;28;20558;-67
2020/12/03 13:07:06;;;;;;;33.13;30.30;;;5.90;10.90;;;;;;5091433;28;20195;-67
2020/12/03 13:09:32;;;;;;;30.40;27.58;;;5.80;10.70;;;;;;5091703;28;20550;-66
2020/12/03 13:11:58;;;;;;;32.43;29.50;;;5.90;12.80;;;;;;5091604;28;20172;-67
2020/12/03 13:14:26;;;;;;;33.50;30.50;;;5.80;13.40;;;;;;5091537;28;20207;-67